sensor_id;sensor_type;location;lat;lon;timestamp;pressure;altitude;pressure_sealevel;temperature;humidity
7832;BME280;3961;42.058;25.586;2023-05-24T00:00:15;63888.97;;;14.77;100.00
7832;BME280;3961;42.058;25.586;2023-05-24T00:02:41;63875.28;;;14.67;100.00
7832;BME280;3961;42.058;25.586;2023-05-24T00:05:08;63851.38;;;14.51;100.00
7832;BME280;3961;42.058;25.586;2023-05-24T00:07:34;63838.72;;;14.35;100.00
7832;BME280;3961;42.058;25.586;2023-05-24T00:10:01;63857.88;;;14.52;100.00
7832;BME280;3961;42.058;25.586;2023-05-24T00:12:26;63860.44;;;14.57;100.00
7832;BME280;3961;42.058;25.586;2023-05-24T00:14:52;63821.56;;;14.23;100.00
7832;BME280;3961;42.058;25.586;2023-05-24T00:17:17;63764.75;;;13.73;100.00
7832;BME280;3961;42.058;25.586;2023-05-24T00:19:43;63767.28;;;13.77;100.00
7832;BME280;3961;42.058;25.586;2023-05-24T00:22:08;63765.09;;;13.71;100.00
7832;BME280;3961;42.058;25.586;2023-05-24T00:24:33;63764.84;;;13.68;100.00
7832;BME280;3961;42.058;25.586;2023-05-24T00:26:59;63745.88;;;13.59;100.00
7832;BME280;3961;42.058;25.586;2023-05-24T00:29:25;63760.59;;;13.62;100.00
7832;BME280;3961;42.058;25.586;2023-05-24T00:31:50;63769.72;;;13.75;100.00
7832;BME280;3961;42.058;25.586;2023-05-24T00:34:16;63800.09;;;14.04;100.00
7832;BME280;3961;42.058;25.586;2023-05-24T00:36:41;63800.09;;;14.04;100.00
7832;BME280;3961;42.058;25.586;2023-05-24T00:39:07;63796.63;;;14.01;100.00
7832;BME280;3961;42.058;25.586;2023-05-24T00:41:32;63803.00;;;14.06;100.00
7832;BME280;3961;42.058;25.586;2023-05-24T00:43:58;63833.16;;;14.33;100.00
7832;BME280;3961;42.058;25.586;2023-05-24T00:46:28;63850.56;;;14.48;100.00
7832;BME280;3961;42.058;25.586;2023-05-24T00:48:55;63853.25;;;14.48;100.00
7832;BME280;3961;42.058;25.586;2023-05-24T00:51:21;63852.66;;;14.48;100.00
7832;BME280;3961;42.058;25.586;2023-05-24T00:53:48;63839.53;;;14.38;100.00
7832;BME280;3961;42.058;25.586;2023-05-24T00:56:14;63856.97;;;14.54;100.00
7832;BME280;3961;42.058;25.586;2023-05-24T00:58:41;63876.09;;;14.70;100.00
7832;BME280;3961;42.058;25.586;2023-05-24T01:01:07;63855.69;;;14.45;100.00
7832;BME280;3961;42.058;25.586;2023-05-24T01:03:33;63848.03;;;14.43;100.00
7832;BME280;3961;42.058;25.586;2023-05-24T01:06:04;63870.06;;;14.63;100.00
7832;BME280;3961;42.058;25.586;2023-05-24T01:16:28;63851.75;;;14.49;100.00
7832;BME280;3961;42.058;25.586;2023-05-24T01:18:56;63848.25;;;14.46;100.00
7832;BME280;3961;42.058;25.586;2023-05-24T01:21:50;63849.06;;;14.49;100.00
7832;BME280;3961;42.058;25.586;2023-05-24T01:27:13;63832.34;;;14.30;100.00
7832;BME280;3961;42.058;25.586;2023-05-24T01:29:39;63814.03;;;14.16;100.00
7832;BME280;3961;42.058;25.586;2023-05-24T01:32:05;63851.03;;;14.41;100.00
7832;BME280;3961;42.058;25.586;2023-05-24T01:34:31;63803.34;;;14.04;100.00
7832;BME280;3961;42.058;25.586;2023-05-24T01:36:56;63825.75;;;14.22;100.00
7832;BME280;3961;42.058;25.586;2023-05-24T01:39:25;63805.66;;;14.06;100.00
7832;BME280;3961;42.058;25.586;2023-05-24T01:42:09;63797.53;;;13.99;100.00
7832;BME280;3961;42.058;25.586;2023-05-24T01:45:03;63774.13;;;13.76;100.00
7832;BME280;3961;42.058;25.586;2023-05-24T01:50:06;63804.50;;;14.05;100.00
7832;BME280;3961;42.058;25.586;2023-05-24T01:52:34;63770.88;;;13.76;100.00
7832;BME280;3961;42.058;25.586;2023-05-24T01:55:02;63760.69;;;13.69;100.00
7832;BME280;3961;42.058;25.586;2023-05-24T01:57:29;63788.88;;;13.92;100.00
7832;BME280;3961;42.058;25.586;2023-05-24T01:59:58;63767.41;;;13.73;100.00
7832;BME280;3961;42.058;25.586;2023-05-24T02:02:24;63763.59;;;13.72;100.00
7832;BME280;3961;42.058;25.586;2023-05-24T02:04:50;63751.19;;;13.59;100.00
7832;BME280;3961;42.058;25.586;2023-05-24T02:07:16;63720.72;;;13.34;100.00
7832;BME280;3961;42.058;25.586;2023-05-24T02:09:41;63711.44;;;13.26;100.00
7832;BME280;3961;42.058;25.586;2023-05-24T02:12:08;63676.09;;;12.95;100.00
7832;BME280;3961;42.058;25.586;2023-05-24T02:14:34;63736.69;;;13.46;100.00
7832;BME280;3961;42.058;25.586;2023-05-24T02:17:02;63751.78;;;13.59;100.00
7832;BME280;3961;42.058;25.586;2023-05-24T02:19:27;63721.28;;;13.35;100.00
7832;BME280;3961;42.058;25.586;2023-05-24T02:21:53;63737.63;;;13.44;100.00
7832;BME280;3961;42.058;25.586;2023-05-24T02:24:19;63724.06;;;13.42;100.00
7832;BME280;3961;42.058;25.586;2023-05-24T02:26:44;63729.75;;;13.40;100.00
7832;BME280;3961;42.058;25.586;2023-05-24T02:29:11;63705.09;;;13.21;100.00
7832;BME280;3961;42.058;25.586;2023-05-24T02:31:36;63676.78;;;12.91;100.00
7832;BME280;3961;42.058;25.586;2023-05-24T02:34:02;63698.44;;;13.12;100.00
7832;BME280;3961;42.058;25.586;2023-05-24T02:36:27;63699.88;;;13.16;100.00
7832;BME280;3961;42.058;25.586;2023-05-24T02:38:53;63721.28;;;13.35;100.00
7832;BME280;3961;42.058;25.586;2023-05-24T02:41:18;63720.50;;;13.32;100.00
7832;BME280;3961;42.058;25.586;2023-05-24T02:43:44;63697.28;;;13.11;100.00
7832;BME280;3961;42.058;25.586;2023-05-24T02:46:10;63717.03;;;13.29;100.00
7832;BME280;3961;42.058;25.586;2023-05-24T02:48:36;63695.91;;;13.08;100.00
7832;BME280;3961;42.058;25.586;2023-05-24T02:51:01;63684.69;;;12.96;100.00
7832;BME280;3961;42.058;25.586;2023-05-24T02:53:31;63675.06;;;12.90;100.00
7832;BME280;3961;42.058;25.586;2023-05-24T02:55:57;63694.75;;;13.07;100.00
7832;BME280;3961;42.058;25.586;2023-05-24T02:58:23;63687.66;;;13.05;100.00
7832;BME280;3961;42.058;25.586;2023-05-24T03:00:49;63699.28;;;13.16;100.00
7832;BME280;3961;42.058;25.586;2023-05-24T03:03:14;63717.81;;;13.32;100.00
7832;BME280;3961;42.058;25.586;2023-05-24T03:05:40;63707.97;;;13.23;100.00
7832;BME280;3961;42.058;25.586;2023-05-24T03:08:06;63704.63;;;13.16;100.00
7832;BME280;3961;42.058;25.586;2023-05-24T03:10:32;63691.84;;;13.04;100.00
7832;BME280;3961;42.058;25.586;2023-05-24T03:12:57;63699.38;;;13.11;100.00
7832;BME280;3961;42.058;25.586;2023-05-24T03:15:23;63731.72;;;13.44;100.00
7832;BME280;3961;42.058;25.586;2023-05-24T03:17:48;63698.09;;;13.15;100.00
7832;BME280;3961;42.058;25.586;2023-05-24T03:20:15;63730.31;;;13.40;100.00
7832;BME280;3961;42.058;25.586;2023-05-24T03:22:41;63743.91;;;13.55;100.00
7832;BME280;3961;42.058;25.586;2023-05-24T03:25:07;63749.47;;;13.57;100.00
7832;BME280;3961;42.058;25.586;2023-05-24T03:27:35;63756.41;;;13.63;100.00
7832;BME280;3961;42.058;25.586;2023-05-24T03:30:00;63781.69;;;13.83;100.00
7832;BME280;3961;42.058;25.586;2023-05-24T03:32:26;63735.53;;;13.45;100.00
7832;BME280;3961;42.058;25.586;2023-05-24T03:34:51;63782.38;;;13.91;100.00
7832;BME280;3961;42.058;25.586;2023-05-24T03:37:17;63796.28;;;14.03;100.00
7832;BME280;3961;42.058;25.586;2023-05-24T03:39:42;63820.97;;;14.22;100.00
7832;BME280;3961;42.058;25.586;2023-05-24T03:42:08;63841.97;;;14.36;100.00
7832;BME280;3961;42.058;25.586;2023-05-24T03:44:34;63856.97;;;14.54;100.00
7832;BME280;3961;42.058;25.586;2023-05-24T03:46:59;63992.91;;;15.68;100.00
7832;BME280;3961;42.058;25.586;2023-05-24T03:49:25;64185.38;;;17.36;100.00
7832;BME280;3961;42.058;25.586;2023-05-24T03:51:51;64303.22;;;18.41;100.00
7832;BME280;3961;42.058;25.586;2023-05-24T03:54:16;64345.91;;;18.73;100.00
7832;BME280;3961;42.058;25.586;2023-05-24T03:56:42;64370.81;;;19.00;100.00
7832;BME280;3961;42.058;25.586;2023-05-24T03:59:08;64494.25;;;20.05;100.00
7832;BME280;3961;42.058;25.586;2023-05-24T04:01:33;64554.03;;;20.59;98.37
7832;BME280;3961;42.058;25.586;2023-05-24T04:04:02;64569.94;;;20.68;97.97
7832;BME280;3961;42.058;25.586;2023-05-24T04:06:28;64616.31;;;21.11;94.93
7832;BME280;3961;42.058;25.586;2023-05-24T04:08:55;64721.19;;;22.04;94.06
7832;BME280;3961;42.058;25.586;2023-05-24T04:11:21;64827.66;;;22.97;88.48
7832;BME280;3961;42.058;25.586;2023-05-24T04:13:48;64798.41;;;22.71;88.11
7832;BME280;3961;42.058;25.586;2023-05-24T04:16:14;64901.38;;;23.54;86.96
7832;BME280;3961;42.058;25.586;2023-05-24T04:18:40;64864.78;;;23.31;86.64
7832;BME280;3961;42.058;25.586;2023-05-24T04:21:05;64902.41;;;23.59;85.85
7832;BME280;3961;42.058;25.586;2023-05-24T04:23:31;64935.00;;;23.85;86.57
7832;BME280;3961;42.058;25.586;2023-05-24T04:25:56;64880.34;;;23.42;85.85
7832;BME280;3961;42.058;25.586;2023-05-24T04:28:22;64655.47;;;21.45;91.45
7832;BME280;3961;42.058;25.586;2023-05-24T04:30:47;64537.69;;;20.45;96.40
7832;BME280;3961;42.058;25.586;2023-05-24T04:33:13;64602.88;;;20.99;95.76
7832;BME280;3961;42.058;25.586;2023-05-24T04:35:39;64618.63;;;21.13;95.53
7832;BME280;3961;42.058;25.586;2023-05-24T04:38:06;64835.88;;;23.04;88.28
7832;BME280;3961;42.058;25.586;2023-05-24T04:40:31;64910.97;;;23.64;84.67
7832;BME280;3961;42.058;25.586;2023-05-24T04:42:57;64820.78;;;22.86;87.16
7832;BME280;3961;42.058;25.586;2023-05-24T04:45:23;64613.75;;;21.06;96.37
7832;BME280;3961;42.058;25.586;2023-05-24T04:47:49;64513.72;;;20.24;100.00
7832;BME280;3961;42.058;25.586;2023-05-24T04:50:15;64365.13;;;18.90;100.00
7832;BME280;3961;42.058;25.586;2023-05-24T04:52:40;64335.84;;;18.69;100.00
7832;BME280;3961;42.058;25.586;2023-05-24T04:55:06;64323.59;;;18.59;100.00
7832;BME280;3961;42.058;25.586;2023-05-24T04:57:31;64329.44;;;18.64;100.00
7832;BME280;3961;42.058;25.586;2023-05-24T04:59:57;64338.53;;;18.69;100.00
7832;BME280;3961;42.058;25.586;2023-05-24T05:02:23;64383.66;;;19.11;100.00
7832;BME280;3961;42.058;25.586;2023-05-24T05:04:51;64629.97;;;21.25;100.00
7832;BME280;3961;42.058;25.586;2023-05-24T05:07:16;64998.72;;;24.45;85.95
7832;BME280;3961;42.058;25.586;2023-05-24T05:09:42;65097.88;;;25.31;81.69
7832;BME280;3961;42.058;25.586;2023-05-24T05:12:07;65252.88;;;26.65;77.41
7832;BME280;3961;42.058;25.586;2023-05-24T05:14:33;65438.72;;;28.25;72.21
7832;BME280;3961;42.058;25.586;2023-05-24T05:16:58;65469.69;;;28.50;68.85
7832;BME280;3961;42.058;25.586;2023-05-24T05:19:24;65562.72;;;29.30;66.17
7832;BME280;3961;42.058;25.586;2023-05-24T05:21:49;65423.97;;;28.13;67.69
7832;BME280;3961;42.058;25.586;2023-05-24T05:24:15;65584.56;;;29.49;65.88
7832;BME280;3961;42.058;25.586;2023-05-24T05:26:41;65434.97;;;28.20;68.63
7832;BME280;3961;42.058;25.586;2023-05-24T05:29:06;65453.00;;;28.33;67.82
7832;BME280;3961;42.058;25.586;2023-05-24T05:31:32;65496.53;;;28.70;67.51
7832;BME280;3961;42.058;25.586;2023-05-24T05:33:58;65363.41;;;27.60;70.25
7832;BME280;3961;42.058;25.586;2023-05-24T05:36:23;65390.19;;;27.74;69.69
7832;BME280;3961;42.058;25.586;2023-05-24T05:38:48;65283.66;;;26.94;72.50
7832;BME280;3961;42.058;25.586;2023-05-24T05:41:14;65202.13;;;26.19;75.50
7832;BME280;3961;42.058;25.586;2023-05-24T05:43:39;65089.81;;;25.19;78.80
7832;BME280;3961;42.058;25.586;2023-05-24T05:46:05;65109.38;;;25.38;78.85
7832;BME280;3961;42.058;25.586;2023-05-24T05:48:31;65057.53;;;24.91;80.48
7832;BME280;3961;42.058;25.586;2023-05-24T05:50:56;64980.56;;;24.29;82.01
7832;BME280;3961;42.058;25.586;2023-05-24T05:53:22;64792.53;;;22.66;89.82
7832;BME280;3961;42.058;25.586;2023-05-24T05:55:49;64809.53;;;22.81;88.34
7832;BME280;3961;42.058;25.586;2023-05-24T05:58:15;64836.00;;;22.99;86.97
7832;BME280;3961;42.058;25.586;2023-05-24T06:00:40;64795.84;;;22.67;90.18
7832;BME280;3961;42.058;25.586;2023-05-24T06:03:06;64856.72;;;23.20;87.73
7832;BME280;3961;42.058;25.586;2023-05-24T06:05:31;64867.84;;;23.29;88.86
7832;BME280;3961;42.058;25.586;2023-05-24T06:07:57;64822.41;;;22.92;88.83
7832;BME280;3961;42.058;25.586;2023-05-24T06:10:22;64854.38;;;23.18;87.08
7832;BME280;3961;42.058;25.586;2023-05-24T06:12:48;64795.25;;;22.66;92.75
7832;BME280;3961;42.058;25.586;2023-05-24T06:15:13;64830.16;;;22.94;91.13
7832;BME280;3961;42.058;25.586;2023-05-24T06:17:38;64813.97;;;22.83;91.53
7832;BME280;3961;42.058;25.586;2023-05-24T06:20:06;64845.59;;;23.10;90.48
7832;BME280;3961;42.058;25.586;2023-05-24T06:22:35;64831.34;;;22.95;90.46
7832;BME280;3961;42.058;25.586;2023-05-24T06:25:02;64848.28;;;23.10;90.20
7832;BME280;3961;42.058;25.586;2023-05-24T06:27:28;64840.53;;;23.08;90.04
7832;BME280;3961;42.058;25.586;2023-05-24T06:29:54;64876.63;;;23.37;89.42
7832;BME280;3961;42.058;25.586;2023-05-24T06:32:19;64874.50;;;23.37;88.57
7832;BME280;3961;42.058;25.586;2023-05-24T06:34:44;64893.84;;;23.54;89.07
7832;BME280;3961;42.058;25.586;2023-05-24T06:37:10;64886.78;;;23.48;90.20
7832;BME280;3961;42.058;25.586;2023-05-24T06:39:39;64876.03;;;23.36;90.84
7832;BME280;3961;42.058;25.586;2023-05-24T06:42:05;64880.72;;;23.40;90.90
7832;BME280;3961;42.058;25.586;2023-05-24T06:44:30;64902.78;;;23.57;90.44
7832;BME280;3961;42.058;25.586;2023-05-24T06:46:59;64870.19;;;23.31;89.86
7832;BME280;3961;42.058;25.586;2023-05-24T06:49:25;64923.13;;;23.79;89.13
7832;BME280;3961;42.058;25.586;2023-05-24T06:51:51;64941.66;;;23.93;89.18
7832;BME280;3961;42.058;25.586;2023-05-24T06:54:17;64968.97;;;24.15;88.22
7832;BME280;3961;42.058;25.586;2023-05-24T06:56:43;64986.00;;;24.29;84.93
7832;BME280;3961;42.058;25.586;2023-05-24T06:59:09;64988.94;;;24.32;85.87
7832;BME280;3961;42.058;25.586;2023-05-24T07:01:35;65011.78;;;24.52;85.26
7832;BME280;3961;42.058;25.586;2023-05-24T07:04:04;65030.38;;;24.72;83.78
7832;BME280;3961;42.058;25.586;2023-05-24T07:06:29;65034.84;;;24.74;83.36
7832;BME280;3961;42.058;25.586;2023-05-24T07:08:56;65012.00;;;24.54;84.18
7832;BME280;3961;42.058;25.586;2023-05-24T07:11:22;65050.91;;;24.90;83.91
7832;BME280;3961;42.058;25.586;2023-05-24T07:13:47;65061.28;;;24.97;83.64
7832;BME280;3961;42.058;25.586;2023-05-24T07:16:13;65077.69;;;25.11;83.59
7832;BME280;3961;42.058;25.586;2023-05-24T07:18:38;65095.88;;;25.27;81.77
7832;BME280;3961;42.058;25.586;2023-05-24T07:21:05;65065.19;;;24.98;82.50
7832;BME280;3961;42.058;25.586;2023-05-24T07:23:31;65077.09;;;25.10;81.67
7832;BME280;3961;42.058;25.586;2023-05-24T07:25:56;65098.81;;;25.29;82.10
7832;BME280;3961;42.058;25.586;2023-05-24T07:28:22;65079.66;;;25.15;82.21
7832;BME280;3961;42.058;25.586;2023-05-24T07:30:47;65108.78;;;25.38;82.89
7832;BME280;3961;42.058;25.586;2023-05-24T07:33:13;65091.41;;;25.25;82.31
7832;BME280;3961;42.058;25.586;2023-05-24T07:35:39;65113.47;;;25.42;80.98
7832;BME280;3961;42.058;25.586;2023-05-24T07:38:04;65130.50;;;25.57;81.19
7832;BME280;3961;42.058;25.586;2023-05-24T07:40:31;65136.63;;;25.64;81.74
7832;BME280;3961;42.058;25.586;2023-05-24T07:42:56;65136.81;;;25.67;79.40
7832;BME280;3961;42.058;25.586;2023-05-24T07:45:22;65160.44;;;25.83;79.76
7832;BME280;3961;42.058;25.586;2023-05-24T07:47:47;65148.13;;;25.72;80.03
7832;BME280;3961;42.058;25.586;2023-05-24T07:50:13;65182.97;;;26.04;80.67
7832;BME280;3961;42.058;25.586;2023-05-24T07:52:38;65141.69;;;25.66;79.26
7832;BME280;3961;42.058;25.586;2023-05-24T07:55:04;65195.69;;;26.13;78.66
7832;BME280;3961;42.058;25.586;2023-05-24T07:57:30;65215.06;;;26.30;76.76
7832;BME280;3961;42.058;25.586;2023-05-24T07:59:56;65150.84;;;25.72;78.61
7832;BME280;3961;42.058;25.586;2023-05-24T08:02:21;65186.28;;;26.05;78.00
7832;BME280;3961;42.058;25.586;2023-05-24T08:04:48;65182.16;;;26.01;74.71
7832;BME280;3961;42.058;25.586;2023-05-24T08:07:13;65199.56;;;26.14;75.93
7832;BME280;3961;42.058;25.586;2023-05-24T08:09:40;65227.41;;;26.40;75.00
7832;BME280;3961;42.058;25.586;2023-05-24T08:12:06;65268.16;;;26.78;73.76
7832;BME280;3961;42.058;25.586;2023-05-24T08:14:32;65277.72;;;26.82;74.18
7832;BME280;3961;42.058;25.586;2023-05-24T08:16:57;65235.03;;;26.47;74.10
7832;BME280;3961;42.058;25.586;2023-05-24T08:19:28;65263.59;;;26.69;74.39
7832;BME280;3961;42.058;25.586;2023-05-24T08:22:00;65241.88;;;26.51;73.91
7832;BME280;3961;42.058;25.586;2023-05-24T08:24:31;65261.25;;;26.67;71.62
7832;BME280;3961;42.058;25.586;2023-05-24T08:26:57;65263.59;;;26.69;70.85
7832;BME280;3961;42.058;25.586;2023-05-24T08:29:22;65246.78;;;26.57;71.47
7832;BME280;3961;42.058;25.586;2023-05-24T08:31:48;65256.75;;;26.66;70.58
7832;BME280;3961;42.058;25.586;2023-05-24T08:34:13;65241.50;;;26.53;70.03
7832;BME280;3961;42.058;25.586;2023-05-24T08:36:40;65198.59;;;26.16;70.80
7832;BME280;3961;42.058;25.586;2023-05-24T08:39:08;65237.41;;;26.49;69.32
7832;BME280;3961;42.058;25.586;2023-05-24T08:41:34;65186.66;;;26.03;69.27
7832;BME280;3961;42.058;25.586;2023-05-24T08:44:04;65258.16;;;26.69;67.67
7832;BME280;3961;42.058;25.586;2023-05-24T08:46:31;65209.19;;;26.25;69.93
7832;BME280;3961;42.058;25.586;2023-05-24T08:48:58;65179.03;;;25.96;70.13
7832;BME280;3961;42.058;25.586;2023-05-24T08:51:25;65238.94;;;26.48;69.24
7832;BME280;3961;42.058;25.586;2023-05-24T08:53:52;65295.56;;;26.99;66.86
7832;BME280;3961;42.058;25.586;2023-05-24T08:56:18;65328.66;;;27.23;66.78
7832;BME280;3961;42.058;25.586;2023-05-24T08:58:44;65222.28;;;26.31;67.20
7832;BME280;3961;42.058;25.586;2023-05-24T09:01:12;65206.03;;;26.20;69.84
7832;BME280;3961;42.058;25.586;2023-05-24T09:03:39;65223.44;;;26.32;68.75
7832;BME280;3961;42.058;25.586;2023-05-24T09:06:06;65281.47;;;26.87;68.37
7832;BME280;3961;42.058;25.586;2023-05-24T09:08:33;65300.66;;;27.01;67.94
7832;BME280;3961;42.058;25.586;2023-05-24T09:11:01;65322.41;;;27.20;66.50
7832;BME280;3961;42.058;25.586;2023-05-24T09:13:28;65173.16;;;25.91;69.03
7832;BME280;3961;42.058;25.586;2023-05-24T09:15:58;65123.25;;;25.48;70.81
7832;BME280;3961;42.058;25.586;2023-05-24T09:18:23;65160.22;;;25.80;69.86
7832;BME280;3961;42.058;25.586;2023-05-24T09:20:49;65228.94;;;26.39;69.93
7832;BME280;3961;42.058;25.586;2023-05-24T09:23:15;65262.06;;;26.70;67.76
7832;BME280;3961;42.058;25.586;2023-05-24T09:25:45;65334.34;;;27.33;66.69
7832;BME280;3961;42.058;25.586;2023-05-24T09:28:16;65353.34;;;27.44;67.14
7832;BME280;3961;42.058;25.586;2023-05-24T09:30:56;65400.63;;;27.88;67.10
7832;BME280;3961;42.058;25.586;2023-05-24T09:33:22;65382.59;;;27.74;66.53
7832;BME280;3961;42.058;25.586;2023-05-24T09:35:47;65420.81;;;28.07;68.39
7832;BME280;3961;42.058;25.586;2023-05-24T09:38:17;65389.22;;;27.75;66.04
7832;BME280;3961;42.058;25.586;2023-05-24T09:40:43;65323.78;;;27.24;67.66
7832;BME280;3961;42.058;25.586;2023-05-24T09:43:10;65318.28;;;27.17;68.18
7832;BME280;3961;42.058;25.586;2023-05-24T09:45:43;65305.56;;;27.08;67.31
7832;BME280;3961;42.058;25.586;2023-05-24T09:48:15;65280.06;;;26.84;69.16
7832;BME280;3961;42.058;25.586;2023-05-24T09:51:05;65322.41;;;27.20;68.85
7832;BME280;3961;42.058;25.586;2023-05-24T09:53:35;65328.88;;;27.26;68.71
7832;BME280;3961;42.058;25.586;2023-05-24T09:56:08;65305.56;;;27.08;68.77
7832;BME280;3961;42.058;25.586;2023-05-24T09:58:34;65303.59;;;27.04;69.85
7832;BME280;3961;42.058;25.586;2023-05-24T10:01:09;65338.84;;;27.34;67.29
7832;BME280;3961;42.058;25.586;2023-05-24T10:03:56;65385.31;;;27.74;67.51
7832;BME280;3961;42.058;25.586;2023-05-24T10:06:23;65366.53;;;27.58;65.49
7832;BME280;3961;42.058;25.586;2023-05-24T10:08:50;65368.47;;;27.62;65.52
7832;BME280;3961;42.058;25.586;2023-05-24T10:11:17;65188.63;;;26.07;67.65
7832;BME280;3961;42.058;25.586;2023-05-24T10:13:43;65286.38;;;26.94;66.28
7832;BME280;3961;42.058;25.586;2023-05-24T10:16:09;65327.31;;;27.27;65.38
7832;BME280;3961;42.058;25.586;2023-05-24T10:18:34;65304.97;;;27.07;65.86
7832;BME280;3961;42.058;25.586;2023-05-24T10:21:00;65247.38;;;26.58;66.41
7832;BME280;3961;42.058;25.586;2023-05-24T10:23:30;65280.88;;;26.87;65.72
7832;BME280;3961;42.058;25.586;2023-05-24T10:26:07;65236.59;;;26.46;67.19
7832;BME280;3961;42.058;25.586;2023-05-24T10:28:50;65307.31;;;27.09;68.88
7832;BME280;3961;42.058;25.586;2023-05-24T10:31:33;65383.34;;;27.70;67.19
7832;BME280;3961;42.058;25.586;2023-05-24T10:34:02;65416.13;;;28.03;62.36
7832;BME280;3961;42.058;25.586;2023-05-24T10:36:28;65442.81;;;28.29;62.81
7832;BME280;3961;42.058;25.586;2023-05-24T10:38:55;65438.06;;;28.18;61.52
7832;BME280;3961;42.058;25.586;2023-05-24T10:41:24;65352.97;;;27.47;64.32
7832;BME280;3961;42.058;25.586;2023-05-24T10:43:52;65225.25;;;26.41;64.60
7832;BME280;3961;42.058;25.586;2023-05-24T10:46:19;65124.03;;;25.51;66.37
7832;BME280;3961;42.058;25.586;2023-05-24T10:48:58;65152.44;;;25.78;69.14
7832;BME280;3961;42.058;25.586;2023-05-24T10:51:33;65163.59;;;25.88;67.90
7832;BME280;3961;42.058;25.586;2023-05-24T10:54:13;65180.22;;;25.97;67.83
7832;BME280;3961;42.058;25.586;2023-05-24T10:56:40;65158.47;;;25.78;68.19
7832;BME280;3961;42.058;25.586;2023-05-24T10:59:06;65168.09;;;25.89;67.67
7832;BME280;3961;42.058;25.586;2023-05-24T11:01:33;65203.69;;;26.18;66.16
7832;BME280;3961;42.058;25.586;2023-05-24T11:04:19;65172.41;;;25.95;66.83
7832;BME280;3961;42.058;25.586;2023-05-24T11:06:48;65185.09;;;26.04;68.14
7832;BME280;3961;42.058;25.586;2023-05-24T11:09:17;65204.06;;;26.16;67.44
7832;BME280;3961;42.058;25.586;2023-05-24T11:11:46;65228.00;;;26.41;67.09
7832;BME280;3961;42.058;25.586;2023-05-24T11:14:17;65243.44;;;26.50;66.21
7832;BME280;3961;42.058;25.586;2023-05-24T11:16:44;65160.09;;;25.85;68.11
7832;BME280;3961;42.058;25.586;2023-05-24T11:19:21;65145.41;;;25.72;67.65
7832;BME280;3961;42.058;25.586;2023-05-24T11:21:48;65150.47;;;25.74;68.59
7832;BME280;3961;42.058;25.586;2023-05-24T11:24:18;65162.81;;;25.85;67.04
7832;BME280;3961;42.058;25.586;2023-05-24T11:26:44;65206.63;;;26.20;66.71
7832;BME280;3961;42.058;25.586;2023-05-24T11:29:12;65256.97;;;26.68;65.75
7832;BME280;3961;42.058;25.586;2023-05-24T11:31:46;65341.78;;;27.37;66.24
7832;BME280;3961;42.058;25.586;2023-05-24T11:34:12;65363.56;;;27.56;63.24
7832;BME280;3961;42.058;25.586;2023-05-24T11:36:37;65329.47;;;27.26;63.74
7832;BME280;3961;42.058;25.586;2023-05-24T11:39:06;65336.56;;;27.39;63.18
7832;BME280;3961;42.058;25.586;2023-05-24T11:41:39;65269.13;;;26.76;64.83
7832;BME280;3961;42.058;25.586;2023-05-24T11:44:06;65312.41;;;27.12;64.31
7832;BME280;3961;42.058;25.586;2023-05-24T11:46:32;65379.06;;;27.71;61.21
7832;BME280;3961;42.058;25.586;2023-05-24T11:48:59;65435.53;;;28.20;62.75
7832;BME280;3961;42.058;25.586;2023-05-24T11:51:32;65490.28;;;28.67;60.73
7832;BME280;3961;42.058;25.586;2023-05-24T11:53:59;65428.28;;;28.12;60.35
7832;BME280;3961;42.058;25.586;2023-05-24T11:56:29;65370.25;;;27.64;63.00
7832;BME280;3961;42.058;25.586;2023-05-24T11:59:20;65213.31;;;26.28;64.94
7832;BME280;3961;42.058;25.586;2023-05-24T12:01:46;65180.22;;;25.97;65.96
7832;BME280;3961;42.058;25.586;2023-05-24T12:04:12;65215.06;;;26.30;65.82
7832;BME280;3961;42.058;25.586;2023-05-24T12:06:41;65209.19;;;26.25;66.20
7832;BME280;3961;42.058;25.586;2023-05-24T12:09:08;65211.91;;;26.25;64.89
7832;BME280;3961;42.058;25.586;2023-05-24T12:11:45;65198.03;;;26.15;65.19
7832;BME280;3961;42.058;25.586;2023-05-24T12:14:12;65236.00;;;26.46;67.96
7832;BME280;3961;42.058;25.586;2023-05-24T12:16:38;65194.28;;;26.09;72.11
7832;BME280;3961;42.058;25.586;2023-05-24T12:19:04;65202.72;;;26.19;74.31
7832;BME280;3961;42.058;25.586;2023-05-24T12:21:31;65179.44;;;26.01;75.79
7832;BME280;3961;42.058;25.586;2023-05-24T12:24:17;65154.78;;;25.80;78.43
7832;BME280;3961;42.058;25.586;2023-05-24T12:26:46;65122.28;;;25.50;79.00
7832;BME280;3961;42.058;25.586;2023-05-24T12:29:13;65067.34;;;25.04;79.96
7832;BME280;3961;42.058;25.586;2023-05-24T12:31:45;65069.84;;;25.02;80.76
7832;BME280;3961;42.058;25.586;2023-05-24T12:34:12;65041.91;;;24.80;81.40
7832;BME280;3961;42.058;25.586;2023-05-24T12:36:38;65030.38;;;24.72;82.93
7832;BME280;3961;42.058;25.586;2023-05-24T12:39:35;65024.31;;;24.65;83.46
7832;BME280;3961;42.058;25.586;2023-05-24T12:42:01;64989.75;;;24.35;82.29
7832;BME280;3961;42.058;25.586;2023-05-24T12:44:29;64921.50;;;23.73;85.90
7832;BME280;3961;42.058;25.586;2023-05-24T12:46:55;64872.31;;;23.31;82.62
7832;BME280;3961;42.058;25.586;2023-05-24T12:49:22;64775.56;;;22.52;82.86
7832;BME280;3961;42.058;25.586;2023-05-24T12:51:48;64776.88;;;22.48;81.85
7832;BME280;3961;42.058;25.586;2023-05-24T12:54:14;64742.22;;;22.23;83.58
7832;BME280;3961;42.058;25.586;2023-05-24T12:56:39;64728.94;;;22.06;84.36
7832;BME280;3961;42.058;25.586;2023-05-24T12:59:05;64636.78;;;21.29;95.29
7832;BME280;3961;42.058;25.586;2023-05-24T13:01:31;64761.09;;;22.34;100.00
7832;BME280;3961;42.058;25.586;2023-05-24T13:03:56;64761.69;;;22.35;100.00
7832;BME280;3961;42.058;25.586;2023-05-24T13:06:23;64777.47;;;22.49;100.00
7832;BME280;3961;42.058;25.586;2023-05-24T13:08:49;64760.16;;;22.36;99.30
7832;BME280;3961;42.058;25.586;2023-05-24T13:11:15;64745.00;;;22.30;100.00
7832;BME280;3961;42.058;25.586;2023-05-24T13:13:40;64708.53;;;21.96;100.00
7832;BME280;3961;42.058;25.586;2023-05-24T13:16:06;64699.06;;;21.80;100.00
7832;BME280;3961;42.058;25.586;2023-05-24T13:18:33;64723.31;;;22.04;100.00
7832;BME280;3961;42.058;25.586;2023-05-24T13:20:59;64747.28;;;22.25;100.00